WIIIWARR

Guest
Details From WIII - Jakarta Sukarno-hatta Intl
To WARR - Surabaya Juanda
Flight Number -
Tags Generated
Created
Modified
Stats Distance 374 nm / 692 km
Max Altitude 0 ft / 0 m
Waypoints 3
Social Downloads 17
Likes 0
Share VATSIM

Download

Looking for another format? Having issues loading an existing format? Contact us
Advertisement - Login to hide

Notes

Generated

Route

WIII R1690 WARR

ID Type Via Altitude Latitude Longitude Leg Dist Tot Dist Heading (true) Name
O WIII APT - 0 ft / 0 m -6.12106˚ 106.63876˚ - 0 nm - -
R1690 FIX - 0 ft / 0 m -7.37765˚ 112.77345˚ 373 nm 373 nm 102° / 101° -
O WARR APT - 0 ft / 0 m -7.37765˚ 112.77345˚ 0 nm 373 nm 0° / 180° -

Altitude Profile

Advertisement - Login to hide

Weather


0- 5 10 15 20 25 30 35+ Temperature / ° C

Clouds and Precipitation
Forecast for 2017-12-11 06:00 UTC. Updated an hour ago

Ground ~20,000 ft ~40,000 ft Winds

WIII

Details ICAO WIII (CGK)
Name Jakarta Sukarno-Hatta Intl
Region Indonesia
Timezone Asia/Jakarta (UTC+7.0)
Stats Elevation 34 ft / 10 m (AMSL)
Location -6.125743° 106.656405°
Runways 2
Magnetic Variation 0.630° E

METAR

WIII 110200Z 24011KT 9000 FEW022 30/24 Q1012 NOSIG

Decode

TAF

TAF WIII 101700Z 1018/1200 22005KT 6000 FEW020 BECMG 1102/1104 25010KT

Decode

Departure Runways

ID Width Length Bearing (true) Bearing (mag) Surface Threshold Offset Overrun Length
07L 197 ft / 60 m 11,823 ft / 3,604 m 68.13° 67.50° Concrete 0 ft / 0 m 200 ft / 61 m
07R 197 ft / 60 m 12,024 ft / 3,665 m 68.12° 67.49° Concrete 0 ft / 0 m 200 ft / 61 m
25L 197 ft / 60 m 12,024 ft / 3,665 m 248.12° 247.49° Concrete 0 ft / 0 m 200 ft / 61 m
25R 197 ft / 60 m 11,823 ft / 3,604 m 248.12° 247.49° Concrete 0 ft / 0 m 200 ft / 61 m

WARR

Details ICAO WARR (SUB)
Name Surabaya Juanda
Region Indonesia
Timezone Asia/Jakarta (UTC+7.0)
Stats Elevation 9 ft / 3 m (AMSL)
Location -7.379832° 112.786858°
Runways 1
Magnetic Variation 0.953° E

METAR

WARR 110100Z VRB03KT 8000 FEW020 29/25 Q1011 NOSIG

Decode

TAF

Not found

Destination Runways

ID Width Length Bearing (true) Bearing (mag) Surface Threshold Offset Overrun Length
10 148 ft / 45 m 9,836 ft / 2,998 m 99.32° 98.37° Asphalt 0 ft / 0 m 328 ft / 100 m
28 148 ft / 45 m 9,836 ft / 2,998 m 279.32° 278.37° Asphalt 0 ft / 0 m 328 ft / 100 m

Approach Navaids

Runway Type Ident Frequency Range Bearing (true) Bearing (mag) Slope Elevation
10 Localiser ISBY 110.10 MHz 18 nm / 33 km 99.30° 98.34° - 8 ft / 2 m (AMSL)
10 Glidescope ISBY 110.10 MHz 10 nm / 19 km 99.32° 98.36° 3.00° 9 ft / 3 m (AMSL)
10 DME ISBY 110.10 MHz 18 nm / 33 km - - - 8 ft / 2 m (AMSL)

Popular Alternatives